Meteo Giornale » Osservazioni meteo Italia » Napoli-Capodichino

ore: 09:50 - Osservazioni Meteo Napoli-Capodichino
Lat. 40° 51' N Lon. 14° 18' E Alt. 88 metri s.l.m.

nuvoloso Europe/Rome

16 °C

Nuvoloso

Temp. 24 Ore

13 °C

22 °C

Nord

5.5 Km/h

Dew point 11 °C

Umidità 72 %

Visibilità  10 Km

Il sole sorge alle ore 05:53

Il sole tramonta alle ore 18:22

Data e Ora Cielo e Fenomeni T °C DP °C Um. % Pres. hPa Vis. km Vento km/h
Oggi h: 09:50 nuvoloso Nuvoloso 16 11 72 1019 10 N 5.5
Oggi h: 09:20 nuvoloso Nuvoloso 15 11 76 1019 10 N 3.7
Oggi h: 08:50 nuvoloso Nuvoloso 15 11 76 1019 10 SO 7.4
Oggi h: 08:20 nuvoloso Nuvoloso 14 11 82 1019 10 O/NO 7.4
Oggi h: 07:50 nuvoloso Nuvoloso 14 11 82 1019 10 O/NO 7.4
Oggi h: 07:20 nuvoloso Nuvoloso 13 11 87 1019 10 O/NO 9.3
Oggi h: 06:50 nuvoloso Nuvoloso 13 11 87 1019 10 O 9.3
Oggi h: 06:20 nuvoloso Nuvoloso 14 12 87 1019 10 O 9.3
Oggi h: 05:50 nuvoloso Nuvoloso 13 12 93 1019 10 O 7.4
Oggi h: 05:20 nuvoloso Nuvoloso 14 12 87 1019 10 N 3.7
Oggi h: 04:50 molto_nuvoloso Molto Nuvoloso 14 12 87 1019 10 N 5.5
Oggi h: 04:20 coperto_pioggia Pioggia Debole 14 12 87 1019 10 N 1.8
Oggi h: 03:50 coperto_pioggia Pioviggine Leggera 14 12 87 1019 10 N 5.5
Oggi h: 03:20 molto_nuvoloso Molto Nuvoloso 14 12 87 1019 10 N 5.5
Oggi h: 03:50 molto_nuvoloso Molto Nuvoloso 14 12 87 1019 10 N 3.7
Oggi h: 03:20 molto_nuvoloso Molto Nuvoloso 14 11 82 1019 10 N 3.7
Oggi h: 01:50 sereno Sereno 14 11 82 1020 10 N 1.8
Oggi h: 01:20 sereno Sereno 14 12 87 1020 10 N 3.7
Oggi h: 00:50 sereno Sereno 14 11 82 1020 10 N 5.5
Oggi h: 00:20 sereno Sereno 14 11 82 1020 10 O 9.3
Ieri h: 23:50 sereno Sereno 14 12 87 1020 10 O 11.1
Ieri h: 23:20 sereno Sereno 13 11 87 1020 10 N 3.7
Ieri h: 22:50 sereno Sereno 14 11 82 1020 10 N 0
Ieri h: 22:20 sereno Sereno 13 10 81 1020 10 N 3.7
Ieri h: 21:50 sereno Sereno 14 11 82 1020 10 N 0
Ieri h: 21:20 sereno Sereno 15 11 76 1021 10 N 3.7
Ieri h: 20:50 sereno Sereno 15 12 82 1020 10 N 3.7
Ieri h: 20:20 sereno Sereno 15 12 82 1020 8 O/NO 11.1
Ieri h: 19:50 poco_nuvoloso Poco Nuvoloso 15 12 82 1020 8 O/NO 11.1
Ieri h: 19:20 nuvoloso Nuvoloso 15 13 87 1019 8 O 13
Ieri h: 18:50 poco_nuvoloso Poco Nuvoloso 16 13 82 1019 8 S/SO 7.4
Ieri h: 18:20 sereno Sereno 16 13 82 1019 10 S 7.4
Ieri h: 17:50 sereno Sereno 17 13 77 1019 10 S 9.3
Ieri h: 17:20 sereno Sereno 17 12 72 1019 10 S 11.1
Ieri h: 16:50 sereno Sereno 18 11 63 1019 10 S/SO 11.1
Ieri h: 16:20 sereno Sereno 19 11 59 1019 10 S 14.8
Ieri h: 15:50 sereno Sereno 20 8 45 1019 10 S 14.8
Ieri h: 15:20 sereno Sereno 21 6 37 1019 10 S 11.1
Ieri h: 14:50 sereno Sereno 22 5 32 1019 10 S 13
Ieri h: 14:20 sereno Sereno 22 5 32 1020 10 S 11.1
Ieri h: 13:20 sereno Sereno 22 5 32 1020 10 S 13
Ieri h: 12:50 sereno Sereno 22 7 37 1021 10 S 11.1
Ieri h: 12:20 sereno Sereno 22 6 35 1021 10 S 9.3
Ieri h: 11:50 sereno Sereno 22 6 35 1021 10 S 9.3
Ieri h: 11:20 sereno Sereno 22 8 40 1021 10 S 7.4
Ieri h: 10:50 sereno Sereno 22 7 37 1021 10 S 7.4